Date,TemperatureHighF,TemperatureAvgF,TemperatureLowF,DewpointHighF,DewpointAvgF,DewpointLowF,HumidityHigh,HumidityAvg,HumidityLow,PressureMaxIn,PressureMinIn,WindSpeedMaxMPH,WindSpeedAvgMPH,GustSpeedMaxMPH,PrecipitationSumIn
2013-2-1,37,25,16,12,3,-6,56,39,26,30.36,29.81,0,0,0,0.00
2013-2-2,36,21,12,10,0,-4,60,40,25,30.52,30.36,0,0,0,0.00
2013-2-3,28,24,16,13,10,7,71,55,45,30.37,30.02,0,0,0,0.00
2013-2-4,33,24,16,11,1,-11,68,40,25,30.19,29.99,0,0,0,0.00
2013-2-5,30,16,5,7,-2,-10,70,47,25,30.33,29.92,2,0,3,0.00
2013-2-6,45,27,16,26,12,-10,79,56,26,30.24,29.90,8,2,8,0.00
2013-2-7,35,18,6,4,-4,-11,57,38,25,30.50,30.24,4,1,4,0.00
2013-2-8,16,13,9,10,6,-6,82,73,37,30.50,29.79,16,3,17,0.00
2013-2-9,20,16,11,17,8,0,88,73,50,30.08,29.61,23,8,27,0.02
2013-2-10,47,20,-2,16,2,-10,69,49,25,30.32,30.09,4,1,8,0.00
2013-2-11,34,22,7,32,16,-3,95,77,59,30.30,29.57,2,0,3,0.00
2013-2-12,52,38,31,35,30,25,96,74,48,29.77,29.50,8,2,8,0.00
2013-2-13,53,35,26,27,22,18,76,62,32,29.80,29.69,4,1,6,0.00
2013-2-14,51,34,24,25,21,17,78,61,32,29.95,29.67,4,1,11,0.00
2013-2-15,54,33,18,35,25,14,91,76,43,29.95,29.85,5,1,8,0.00
2013-2-16,44,34,28,34,26,5,91,72,37,29.91,29.73,8,2,9,0.00
2013-2-17,28,21,16,19,8,-2,85,58,35,29.73,29.22,12,4,18,0.00
2013-2-18,37,22,11,6,-2,-4,50,35,25,29.91,29.47,11,4,11,0.00
2013-2-19,48,34,25,41,14,-4,99,50,25,30.04,29.52,7,2,7,0.36
2013-2-20,41,33,25,38,22,11,99,67,46,29.65,29.42,8,3,12,0.00
2013-2-21,39,27,20,16,11,5,63,51,28,30.10,29.64,8,4,12,0.00
2013-2-22,47,31,26,21,18,15,73,59,33,30.34,30.13,4,1,9,0.00
2013-2-23,39,32,26,32,26,19,90,77,65,30.31,30.00,3,1,4,0.00
2013-2-24,33,31,28,31,29,25,93,91,87,29.95,29.72,3,1,5,0.04
2013-2-25,50,33,23,36,27,20,92,81,55,30.20,29.86,3,0,4,0.00
2013-2-26,46,34,28,33,28,23,92,79,50,30.32,30.19,3,0,5,0.00
2013-2-27,37,33,29,34,30,26,91,89,83,30.19,29.77,8,2,10,0.14
2013-2-28,46,37,32,37,33,29,92,86,70,29.58,29.50,4,1,7,0.00